sensor_id;sensor_type;location;lat;lon;timestamp;pressure;altitude;pressure_sealevel;temperature;humidity
77216;BME280;66210;53.282;9.864;2023-02-23T00:01:51;100629.34;;;5.68;91.52
77216;BME280;66210;53.282;9.864;2023-02-23T00:04:17;100636.13;;;5.69;91.20
77216;BME280;66210;53.282;9.864;2023-02-23T00:06:44;100639.63;;;5.71;91.07
77216;BME280;66210;53.282;9.864;2023-02-23T00:09:11;100629.94;;;5.63;91.83
77216;BME280;66210;53.282;9.864;2023-02-23T00:11:55;100640.28;;;5.68;91.06
77216;BME280;66210;53.282;9.864;2023-02-23T00:14:27;100639.31;;;5.66;91.10
77216;BME280;66210;53.282;9.864;2023-02-23T00:16:54;100640.88;;;5.64;91.19
77216;BME280;66210;53.282;9.864;2023-02-23T00:19:22;100638.91;;;5.60;91.01
77216;BME280;66210;53.282;9.864;2023-02-23T00:21:50;100627.88;;;5.58;91.04
77216;BME280;66210;53.282;9.864;2023-02-23T00:24:17;100628.84;;;5.60;91.37
77216;BME280;66210;53.282;9.864;2023-02-23T00:26:46;100631.94;;;5.56;91.41
77216;BME280;66210;53.282;9.864;2023-02-23T00:29:15;100625.94;;;5.54;91.38
77216;BME280;66210;53.282;9.864;2023-02-23T00:31:44;100627.56;;;5.53;91.04
77216;BME280;66210;53.282;9.864;2023-02-23T00:34:12;100625.84;;;5.52;91.02
77216;BME280;66210;53.282;9.864;2023-02-23T00:36:40;100632.53;;;5.52;90.68
77216;BME280;66210;53.282;9.864;2023-02-23T00:39:10;100629.91;;;5.50;90.88
77216;BME280;66210;53.282;9.864;2023-02-23T00:41:48;100629.81;;;5.49;91.53
77216;BME280;66210;53.282;9.864;2023-02-23T00:44:15;100624.56;;;5.46;91.35
77216;BME280;66210;53.282;9.864;2023-02-23T00:46:43;100632.03;;;5.44;91.39
77216;BME280;66210;53.282;9.864;2023-02-23T00:49:12;100623.50;;;5.42;91.38
77216;BME280;66210;53.282;9.864;2023-02-23T00:51:38;100630.97;;;5.40;91.48
77216;BME280;66210;53.282;9.864;2023-02-23T00:54:06;100638.41;;;5.39;91.00
77216;BME280;66210;53.282;9.864;2023-02-23T00:56:33;100625.41;;;5.33;91.05
77216;BME280;66210;53.282;9.864;2023-02-23T00:59:00;100623.88;;;5.35;91.32
77216;BME280;66210;53.282;9.864;2023-02-23T01:01:26;100634.75;;;5.34;91.09
77216;BME280;66210;53.282;9.864;2023-02-23T01:03:53;100632.00;;;5.31;91.60
77216;BME280;66210;53.282;9.864;2023-02-23T01:06:20;100630.28;;;5.30;91.54
77216;BME280;66210;53.282;9.864;2023-02-23T01:08:49;100628.44;;;5.27;91.53
77216;BME280;66210;53.282;9.864;2023-02-23T01:11:25;100625.81;;;5.26;91.44
77216;BME280;66210;53.282;9.864;2023-02-23T01:13:58;100628.31;;;5.26;91.39
77216;BME280;66210;53.282;9.864;2023-02-23T01:16:31;100624.81;;;5.24;91.12
77216;BME280;66210;53.282;9.864;2023-02-23T01:19:00;100630.66;;;5.23;91.34
77216;BME280;66210;53.282;9.864;2023-02-23T01:21:30;100631.41;;;5.21;91.32
77216;BME280;66210;53.282;9.864;2023-02-23T01:23:57;100631.28;;;5.20;91.63
77216;BME280;66210;53.282;9.864;2023-02-23T01:26:27;100627.03;;;5.19;91.14
77216;BME280;66210;53.282;9.864;2023-02-23T01:28:58;100625.31;;;5.18;91.68
77216;BME280;66210;53.282;9.864;2023-02-23T01:31:27;100637.78;;;5.16;91.49
77216;BME280;66210;53.282;9.864;2023-02-23T01:33:56;100627.59;;;5.15;91.59
77216;BME280;66210;53.282;9.864;2023-02-23T01:36:23;100624.22;;;5.14;91.39
77216;BME280;66210;53.282;9.864;2023-02-23T01:38:55;100619.66;;;5.09;91.78
77216;BME280;66210;53.282;9.864;2023-02-23T01:41:23;100618.09;;;5.11;91.27
77216;BME280;66210;53.282;9.864;2023-02-23T01:46:21;100627.19;;;5.09;91.44
77216;BME280;66210;53.282;9.864;2023-02-23T01:48:48;100623.81;;;5.08;91.69
77216;BME280;66210;53.282;9.864;2023-02-23T01:51:18;100629.63;;;5.07;91.77
77216;BME280;66210;53.282;9.864;2023-02-23T01:53:58;100630.19;;;5.03;91.28
77216;BME280;66210;53.282;9.864;2023-02-23T01:56:30;100627.69;;;5.03;91.71
77216;BME280;66210;53.282;9.864;2023-02-23T01:59:02;100629.34;;;5.03;91.69
77216;BME280;66210;53.282;9.864;2023-02-23T02:01:30;100630.09;;;5.02;91.25
77216;BME280;66210;53.282;9.864;2023-02-23T02:04:00;100623.09;;;4.97;91.29
77216;BME280;66210;53.282;9.864;2023-02-23T02:06:27;100621.38;;;4.96;91.47
77216;BME280;66210;53.282;9.864;2023-02-23T02:09:01;100623.09;;;4.97;91.30
77216;BME280;66210;53.282;9.864;2023-02-23T02:11:33;100633.28;;;4.99;91.64
77216;BME280;66210;53.282;9.864;2023-02-23T02:14:13;100628.25;;;4.99;91.35
77216;BME280;66210;53.282;9.864;2023-02-23T02:16:51;100629.03;;;4.98;91.31
77216;BME280;66210;53.282;9.864;2023-02-23T02:25:34;100620.50;;;4.96;91.43
77216;BME280;66210;53.282;9.864;2023-02-23T02:31:19;100612.72;;;4.93;91.32
77216;BME280;66210;53.282;9.864;2023-02-23T02:34:17;100619.41;;;4.92;91.05
77216;BME280;66210;53.282;9.864;2023-02-23T02:39:40;100626.78;;;4.89;91.14
77216;BME280;66210;53.282;9.864;2023-02-23T02:42:24;100623.28;;;4.87;91.38
77216;BME280;66210;53.282;9.864;2023-02-23T02:45:12;100616.47;;;4.86;91.13
77216;BME280;66210;53.282;9.864;2023-02-23T02:50:42;100615.41;;;4.83;91.67
77216;BME280;66210;53.282;9.864;2023-02-23T02:53:33;100624.50;;;4.81;91.69
77216;BME280;66210;53.282;9.864;2023-02-23T02:56:03;100619.38;;;4.79;91.61
77216;BME280;66210;53.282;9.864;2023-02-23T02:58:32;100626.81;;;4.77;91.84
77216;BME280;66210;53.282;9.864;2023-02-23T03:01:08;100614.13;;;4.76;91.73
77216;BME280;66210;53.282;9.864;2023-02-23T03:03:58;100614.13;;;4.76;91.93
77216;BME280;66210;53.282;9.864;2023-02-23T03:06:47;100610.63;;;4.74;91.81
77216;BME280;66210;53.282;9.864;2023-02-23T03:09:45;100614.81;;;4.73;91.89
77216;BME280;66210;53.282;9.864;2023-02-23T03:13:11;100617.41;;;4.75;91.47
77216;BME280;66210;53.282;9.864;2023-02-23T03:16:23;100611.50;;;4.74;91.97
77216;BME280;66210;53.282;9.864;2023-02-23T03:19:25;100612.38;;;4.75;91.57
77216;BME280;66210;53.282;9.864;2023-02-23T03:22:25;100609.97;;;4.76;92.00
77216;BME280;66210;53.282;9.864;2023-02-23T03:25:13;100615.00;;;4.76;91.76
77216;BME280;66210;53.282;9.864;2023-02-23T03:28:16;100618.50;;;4.78;92.05
77216;BME280;66210;53.282;9.864;2023-02-23T03:31:15;100604.94;;;4.76;91.76
77216;BME280;66210;53.282;9.864;2023-02-23T03:34:14;100615.19;;;4.79;91.66
77216;BME280;66210;53.282;9.864;2023-02-23T03:37:12;100613.47;;;4.78;92.01
77216;BME280;66210;53.282;9.864;2023-02-23T03:40:09;100610.94;;;4.78;91.60
77216;BME280;66210;53.282;9.864;2023-02-23T03:42:58;100615.19;;;4.79;91.91
77216;BME280;66210;53.282;9.864;2023-02-23T03:45:45;100615.19;;;4.79;92.14
77216;BME280;66210;53.282;9.864;2023-02-23T03:48:33;100621.78;;;4.77;91.47
77216;BME280;66210;53.282;9.864;2023-02-23T03:51:21;100607.25;;;4.73;91.90
77216;BME280;66210;53.282;9.864;2023-02-23T03:54:15;100613.03;;;4.72;92.20
77216;BME280;66210;53.282;9.864;2023-02-23T03:57:04;100611.31;;;4.71;91.67
77216;BME280;66210;53.282;9.864;2023-02-23T03:59:58;100611.19;;;4.70;91.65
77216;BME280;66210;53.282;9.864;2023-02-23T04:02:47;100609.47;;;4.69;91.77
77216;BME280;66210;53.282;9.864;2023-02-23T04:05:37;100612.75;;;4.68;91.75
77216;BME280;66210;53.282;9.864;2023-02-23T04:08:28;100608.25;;;4.64;92.03
77216;BME280;66210;53.282;9.864;2023-02-23T04:11:45;100615.06;;;4.65;91.80
77216;BME280;66210;53.282;9.864;2023-02-23T04:14:49;100615.06;;;4.65;92.07
77216;BME280;66210;53.282;9.864;2023-02-23T04:17:23;100604.69;;;4.60;91.82
77216;BME280;66210;53.282;9.864;2023-02-23T04:19:52;100610.69;;;4.62;92.14
77216;BME280;66210;53.282;9.864;2023-02-23T04:22:20;100607.09;;;4.58;91.99
77216;BME280;66210;53.282;9.864;2023-02-23T04:24:47;100608.06;;;4.61;92.32
77216;BME280;66210;53.282;9.864;2023-02-23T04:27:14;100612.22;;;4.60;92.37
77216;BME280;66210;53.282;9.864;2023-02-23T04:29:42;100606.78;;;4.54;92.15
77216;BME280;66210;53.282;9.864;2023-02-23T04:32:14;100614.63;;;4.58;92.11
77216;BME280;66210;53.282;9.864;2023-02-23T04:34:42;100612.69;;;4.54;92.03
77216;BME280;66210;53.282;9.864;2023-02-23T04:37:09;100617.03;;;4.57;92.23
77216;BME280;66210;53.282;9.864;2023-02-23T04:39:36;100616.97;;;4.55;92.19
77216;BME280;66210;53.282;9.864;2023-02-23T04:42:03;100620.44;;;4.57;92.07
77216;BME280;66210;53.282;9.864;2023-02-23T04:44:30;100617.81;;;4.56;92.45
77216;BME280;66210;53.282;9.864;2023-02-23T04:46:57;100610.06;;;4.53;91.64
77216;BME280;66210;53.282;9.864;2023-02-23T04:49:23;100620.53;;;4.59;92.41
77216;BME280;66210;53.282;9.864;2023-02-23T04:51:50;100620.75;;;4.62;92.00
77216;BME280;66210;53.282;9.864;2023-02-23T04:54:17;100614.94;;;4.63;92.27
77216;BME280;66210;53.282;9.864;2023-02-23T04:56:43;100618.25;;;4.62;92.43
77216;BME280;66210;53.282;9.864;2023-02-23T04:59:10;100625.00;;;4.63;92.26
77216;BME280;66210;53.282;9.864;2023-02-23T05:01:37;100624.25;;;4.64;92.56
77216;BME280;66210;53.282;9.864;2023-02-23T05:04:04;100623.47;;;4.65;92.49
77216;BME280;66210;53.282;9.864;2023-02-23T05:06:31;100624.44;;;4.67;92.57
77216;BME280;66210;53.282;9.864;2023-02-23T05:08:58;100631.44;;;4.71;92.70
77216;BME280;66210;53.282;9.864;2023-02-23T05:11:24;100619.63;;;4.70;92.35
77216;BME280;66210;53.282;9.864;2023-02-23T05:13:53;100624.41;;;4.79;93.02
77216;BME280;66210;53.282;9.864;2023-02-23T05:16:20;100629.53;;;4.81;92.64
77216;BME280;66210;53.282;9.864;2023-02-23T05:18:47;100627.22;;;4.84;92.70
77216;BME280;66210;53.282;9.864;2023-02-23T05:21:14;100621.22;;;4.82;92.50
77216;BME280;66210;53.282;9.864;2023-02-23T05:23:41;100624.81;;;4.85;92.73
77216;BME280;66210;53.282;9.864;2023-02-23T05:26:10;100635.97;;;4.89;92.56
77216;BME280;66210;53.282;9.864;2023-02-23T05:28:38;100632.66;;;4.90;92.25
77216;BME280;66210;53.282;9.864;2023-02-23T05:31:05;100628.50;;;4.90;92.18
77216;BME280;66210;53.282;9.864;2023-02-23T05:33:34;100625.97;;;4.90;92.47
77216;BME280;66210;53.282;9.864;2023-02-23T05:36:09;100627.06;;;4.94;92.57
77216;BME280;66210;53.282;9.864;2023-02-23T05:38:37;100621.19;;;4.93;92.54
77216;BME280;66210;53.282;9.864;2023-02-23T05:41:08;100624.75;;;4.97;92.68
77216;BME280;66210;53.282;9.864;2023-02-23T05:43:35;100622.47;;;5.00;92.50
77216;BME280;66210;53.282;9.864;2023-02-23T05:46:10;100626.81;;;5.03;93.19
77216;BME280;66210;53.282;9.864;2023-02-23T05:48:37;100631.28;;;5.07;93.15
77216;BME280;66210;53.282;9.864;2023-02-23T05:51:07;100624.91;;;5.12;92.95
77216;BME280;66210;53.282;9.864;2023-02-23T05:53:35;100625.31;;;5.18;92.95
77216;BME280;66210;53.282;9.864;2023-02-23T05:56:03;100622.97;;;5.21;93.63
77216;BME280;66210;53.282;9.864;2023-02-23T05:58:30;100628.22;;;5.24;93.14
77216;BME280;66210;53.282;9.864;2023-02-23T06:00:58;100635.19;;;5.28;92.93
77216;BME280;66210;53.282;9.864;2023-02-23T06:03:24;100634.44;;;5.29;93.32
77216;BME280;66210;53.282;9.864;2023-02-23T06:05:53;100626.97;;;5.31;93.08
77216;BME280;66210;53.282;9.864;2023-02-23T06:08:20;100633.75;;;5.32;93.19
77216;BME280;66210;53.282;9.864;2023-02-23T06:10:47;100632.00;;;5.31;92.67
77216;BME280;66210;53.282;9.864;2023-02-23T06:13:14;100636.38;;;5.33;92.75
77216;BME280;66210;53.282;9.864;2023-02-23T06:15:42;100635.03;;;5.38;92.91
77216;BME280;66210;53.282;9.864;2023-02-23T06:18:09;100634.34;;;5.41;93.15
77216;BME280;66210;53.282;9.864;2023-02-23T06:20:37;100642.09;;;5.44;92.77
77216;BME280;66210;53.282;9.864;2023-02-23T06:23:06;100643.19;;;5.48;93.12
77216;BME280;66210;53.282;9.864;2023-02-23T06:25:33;100646.56;;;5.48;93.36
77216;BME280;66210;53.282;9.864;2023-02-23T06:27:59;100654.25;;;5.50;92.99
77216;BME280;66210;53.282;9.864;2023-02-23T06:30:26;100650.19;;;5.52;93.23
77216;BME280;66210;53.282;9.864;2023-02-23T06:32:53;100649.28;;;5.51;92.93
77216;BME280;66210;53.282;9.864;2023-02-23T06:35:20;100660.44;;;5.55;93.33
77216;BME280;66210;53.282;9.864;2023-02-23T06:37:46;100655.50;;;5.56;92.76
77216;BME280;66210;53.282;9.864;2023-02-23T06:40:13;100664.81;;;5.57;93.35
77216;BME280;66210;53.282;9.864;2023-02-23T06:42:40;100664.81;;;5.57;92.76
77216;BME280;66210;53.282;9.864;2023-02-23T06:45:07;100665.78;;;5.59;93.54
77216;BME280;66210;53.282;9.864;2023-02-23T06:47:34;100673.22;;;5.58;92.81
77216;BME280;66210;53.282;9.864;2023-02-23T06:50:01;100677.69;;;5.62;92.79
77216;BME280;66210;53.282;9.864;2023-02-23T06:52:29;100671.97;;;5.65;93.18
77216;BME280;66210;53.282;9.864;2023-02-23T06:54:56;100678.88;;;5.67;92.93
77216;BME280;66210;53.282;9.864;2023-02-23T06:57:22;100679.75;;;5.68;93.44
77216;BME280;66210;53.282;9.864;2023-02-23T06:59:49;100677.25;;;5.68;93.20
77216;BME280;66210;53.282;9.864;2023-02-23T07:02:16;100687.63;;;5.72;92.75
77216;BME280;66210;53.282;9.864;2023-02-23T07:04:43;100685.00;;;5.71;93.08
77216;BME280;66210;53.282;9.864;2023-02-23T07:07:10;100688.78;;;5.77;92.70
77216;BME280;66210;53.282;9.864;2023-02-23T07:09:41;100694.00;;;5.80;93.05
77216;BME280;66210;53.282;9.864;2023-02-23T07:12:08;100693.34;;;5.83;92.92
77216;BME280;66210;53.282;9.864;2023-02-23T07:14:36;100695.94;;;5.84;93.08
77216;BME280;66210;53.282;9.864;2023-02-23T07:17:06;100698.59;;;5.86;93.07
77216;BME280;66210;53.282;9.864;2023-02-23T07:19:34;100701.41;;;5.91;93.08
77216;BME280;66210;53.282;9.864;2023-02-23T07:22:00;100702.38;;;5.93;92.83
77216;BME280;66210;53.282;9.864;2023-02-23T07:24:27;100699.06;;;5.94;93.36
77216;BME280;66210;53.282;9.864;2023-02-23T07:26:54;100706.09;;;5.98;92.95
77216;BME280;66210;53.282;9.864;2023-02-23T07:29:21;100711.53;;;6.04;92.92
77216;BME280;66210;53.282;9.864;2023-02-23T07:31:49;100710.94;;;6.08;93.17
77216;BME280;66210;53.282;9.864;2023-02-23T07:34:16;100719.50;;;6.10;93.44
77216;BME280;66210;53.282;9.864;2023-02-23T07:36:43;100718.00;;;6.14;93.40
77216;BME280;66210;53.282;9.864;2023-02-23T07:39:10;100715.78;;;6.18;93.24
77216;BME280;66210;53.282;9.864;2023-02-23T07:41:36;100721.78;;;6.20;93.45
77216;BME280;66210;53.282;9.864;2023-02-23T07:44:03;100721.22;;;6.24;93.42
77216;BME280;66210;53.282;9.864;2023-02-23T07:46:30;100719.66;;;6.27;93.30
77216;BME280;66210;53.282;9.864;2023-02-23T07:48:58;100722.38;;;6.30;93.03
77216;BME280;66210;53.282;9.864;2023-02-23T07:51:24;100719.09;;;6.31;93.34
77216;BME280;66210;53.282;9.864;2023-02-23T07:53:51;100725.41;;;6.37;93.37
77216;BME280;66210;53.282;9.864;2023-02-23T07:56:18;100727.91;;;6.37;93.55
77216;BME280;66210;53.282;9.864;2023-02-23T07:58:45;100722.38;;;6.43;93.37
77216;BME280;66210;53.282;9.864;2023-02-23T08:01:12;100729.25;;;6.45;93.70
77216;BME280;66210;53.282;9.864;2023-02-23T08:03:39;100726.72;;;6.45;93.18
77216;BME280;66210;53.282;9.864;2023-02-23T08:06:06;100733.03;;;6.52;93.17
77216;BME280;66210;53.282;9.864;2023-02-23T08:08:33;100733.22;;;6.55;93.30
77216;BME280;66210;53.282;9.864;2023-02-23T08:11:02;100733.41;;;6.58;93.39
77216;BME280;66210;53.282;9.864;2023-02-23T08:13:30;100725.94;;;6.60;93.45
77216;BME280;66210;53.282;9.864;2023-02-23T08:15:57;100734.56;;;6.63;93.27
77216;BME280;66210;53.282;9.864;2023-02-23T08:18:24;100730.59;;;6.67;93.43
77216;BME280;66210;53.282;9.864;2023-02-23T08:20:57;100738.44;;;6.72;93.57
77216;BME280;66210;53.282;9.864;2023-02-23T08:23:24;100735.16;;;6.73;93.34
77216;BME280;66210;53.282;9.864;2023-02-23T08:25:52;100734.47;;;6.75;93.10
77216;BME280;66210;53.282;9.864;2023-02-23T08:28:19;100735.50;;;6.79;93.34
77216;BME280;66210;53.282;9.864;2023-02-23T08:30:47;100737.28;;;6.80;93.22
77216;BME280;66210;53.282;9.864;2023-02-23T08:33:14;100743.34;;;6.83;93.22
77216;BME280;66210;53.282;9.864;2023-02-23T08:35:40;100742.66;;;6.86;93.38
77216;BME280;66210;53.282;9.864;2023-02-23T08:38:07;100742.66;;;6.86;93.22
77216;BME280;66210;53.282;9.864;2023-02-23T08:40:34;100742.88;;;6.89;93.29
77216;BME280;66210;53.282;9.864;2023-02-23T08:43:01;100748.03;;;6.91;93.38
77216;BME280;66210;53.282;9.864;2023-02-23T08:45:27;100743.56;;;6.86;93.14
77216;BME280;66210;53.282;9.864;2023-02-23T08:47:55;100740.25;;;6.87;93.20
77216;BME280;66210;53.282;9.864;2023-02-23T08:50:22;100753.84;;;6.90;93.17
77216;BME280;66210;53.282;9.864;2023-02-23T08:52:52;100745.19;;;6.86;93.69
77216;BME280;66210;53.282;9.864;2023-02-23T08:55:19;100746.84;;;6.85;94.00
77216;BME280;66210;53.282;9.864;2023-02-23T08:57:47;100749.59;;;6.89;93.67
77216;BME280;66210;53.282;9.864;2023-02-23T09:00:14;100740.25;;;6.87;93.22
77216;BME280;66210;53.282;9.864;2023-02-23T09:02:43;100750.56;;;6.91;93.61
77216;BME280;66210;53.282;9.864;2023-02-23T09:05:10;100747.13;;;6.90;93.11
77216;BME280;66210;53.282;9.864;2023-02-23T09:07:38;100744.59;;;6.90;93.41
77216;BME280;66210;53.282;9.864;2023-02-23T09:10:05;100743.75;;;6.90;93.23
77216;BME280;66210;53.282;9.864;2023-02-23T09:12:32;100742.19;;;6.92;93.41
77216;BME280;66210;53.282;9.864;2023-02-23T09:14:59;100742.34;;;6.95;93.27
77216;BME280;66210;53.282;9.864;2023-02-23T09:17:26;100743.91;;;6.93;93.31
77216;BME280;66210;53.282;9.864;2023-02-23T09:19:53;100739.06;;;6.96;93.41
77216;BME280;66210;53.282;9.864;2023-02-23T09:22:20;100743.91;;;6.93;93.25
77216;BME280;66210;53.282;9.864;2023-02-23T09:24:46;100754.41;;;6.99;93.46
77216;BME280;66210;53.282;9.864;2023-02-23T09:27:13;100754.22;;;6.96;93.35
77216;BME280;66210;53.282;9.864;2023-02-23T09:29:40;100760.25;;;6.98;93.09
77216;BME280;66210;53.282;9.864;2023-02-23T09:32:08;100755.88;;;6.95;93.41
77216;BME280;66210;53.282;9.864;2023-02-23T09:34:35;100759.16;;;6.94;93.12
77216;BME280;66210;53.282;9.864;2023-02-23T09:37:04;100759.84;;;6.92;93.20
77216;BME280;66210;53.282;9.864;2023-02-23T09:39:31;100758.31;;;6.94;93.53
77216;BME280;66210;53.282;9.864;2023-02-23T09:42:41;100765.00;;;6.93;93.39
77216;BME280;66210;53.282;9.864;2023-02-23T09:45:25;100758.19;;;6.92;93.41
77216;BME280;66210;53.282;9.864;2023-02-23T09:48:05;100763.47;;;6.95;93.30
77216;BME280;66210;53.282;9.864;2023-02-23T09:50:37;100758.59;;;6.98;93.30
77216;BME280;66210;53.282;9.864;2023-02-23T09:53:18;100765.28;;;6.98;93.14
77216;BME280;66210;53.282;9.864;2023-02-23T09:55:47;100759.16;;;6.94;93.34
77216;BME280;66210;53.282;9.864;2023-02-23T09:58:27;100767.53;;;6.93;93.02
77216;BME280;66210;53.282;9.864;2023-02-23T10:01:17;100780.16;;;6.93;92.99
77216;BME280;66210;53.282;9.864;2023-02-23T10:19:02;100773.16;;;7.02;92.71
77216;BME280;66210;53.282;9.864;2023-02-23T10:21:38;100784.97;;;7.03;92.75
77216;BME280;66210;53.282;9.864;2023-02-23T10:24:21;100786.75;;;7.04;92.77
77216;BME280;66210;53.282;9.864;2023-02-23T10:26:54;100777.41;;;7.03;93.04
77216;BME280;66210;53.282;9.864;2023-02-23T10:29:26;100785.78;;;7.02;92.80
77216;BME280;66210;53.282;9.864;2023-02-23T10:34:59;100791.59;;;7.01;92.60
77216;BME280;66210;53.282;9.864;2023-02-23T10:37:25;100794.13;;;7.01;92.96
77216;BME280;66210;53.282;9.864;2023-02-23T10:39:53;100788.03;;;6.98;92.75
77216;BME280;66210;53.282;9.864;2023-02-23T10:42:25;100795.69;;;6.99;92.84
77216;BME280;66210;53.282;9.864;2023-02-23T10:44:59;100794.22;;;7.03;92.67
77216;BME280;66210;53.282;9.864;2023-02-23T10:47:31;100790.31;;;7.08;92.70
77216;BME280;66210;53.282;9.864;2023-02-23T10:49:59;100791.06;;;7.20;92.94
77216;BME280;66210;53.282;9.864;2023-02-23T10:52:34;100790.94;;;7.32;92.36
77216;BME280;66210;53.282;9.864;2023-02-23T10:55:27;100789.31;;;7.47;92.92
77216;BME280;66210;53.282;9.864;2023-02-23T10:58:10;100789.16;;;7.59;92.34
77216;BME280;66210;53.282;9.864;2023-02-23T11:00:57;100785.34;;;7.66;91.14
77216;BME280;66210;53.282;9.864;2023-02-23T11:03:29;100785.53;;;7.69;91.27
77216;BME280;66210;53.282;9.864;2023-02-23T11:05:58;100780.38;;;7.67;90.70
77216;BME280;66210;53.282;9.864;2023-02-23T11:08:32;100786.28;;;7.68;90.14
77216;BME280;66210;53.282;9.864;2023-02-23T11:13:43;100796.84;;;7.61;90.71
77216;BME280;66210;53.282;9.864;2023-02-23T11:16:16;100793.34;;;7.59;90.65
77216;BME280;66210;53.282;9.864;2023-02-23T11:19:00;100788.19;;;7.57;90.54
77216;BME280;66210;53.282;9.864;2023-02-23T11:23:57;100797.00;;;7.49;89.77
77216;BME280;66210;53.282;9.864;2023-02-23T11:26:31;100789.91;;;7.43;89.73
77216;BME280;66210;53.282;9.864;2023-02-23T11:29:02;100788.41;;;7.32;89.81
77216;BME280;66210;53.282;9.864;2023-02-23T11:31:36;100795.59;;;7.26;90.09
77216;BME280;66210;53.282;9.864;2023-02-23T11:34:04;100792.22;;;7.25;90.46
77216;BME280;66210;53.282;9.864;2023-02-23T11:36:34;100788.03;;;7.26;90.63
77216;BME280;66210;53.282;9.864;2023-02-23T11:41:41;100782.28;;;7.28;91.10
77216;BME280;66210;53.282;9.864;2023-02-23T11:44:20;100779.25;;;7.34;90.77
77216;BME280;66210;53.282;9.864;2023-02-23T11:46:48;100782.84;;;7.38;90.84
77216;BME280;66210;53.282;9.864;2023-02-23T11:49:26;100780.75;;;7.45;90.80
77216;BME280;66210;53.282;9.864;2023-02-23T11:51:54;100781.03;;;7.50;91.08
77216;BME280;66210;53.282;9.864;2023-02-23T11:56:52;100780.34;;;7.53;90.58
77216;BME280;66210;53.282;9.864;2023-02-23T11:59:30;100775.22;;;7.51;90.61
77216;BME280;66210;53.282;9.864;2023-02-23T12:04:45;100769.00;;;7.46;89.80
77216;BME280;66210;53.282;9.864;2023-02-23T12:07:25;100771.16;;;7.40;89.30
77216;BME280;66210;53.282;9.864;2023-02-23T12:10:02;100765.75;;;7.34;89.64
77216;BME280;66210;53.282;9.864;2023-02-23T12:13:22;100767.03;;;7.27;89.91
77216;BME280;66210;53.282;9.864;2023-02-23T12:15:35;100766.94;;;7.25;90.12
77216;BME280;66210;53.282;9.864;2023-02-23T12:18:12;100766.19;;;7.26;90.18
77216;BME280;66210;53.282;9.864;2023-02-23T12:20:43;100764.69;;;7.30;90.20
77216;BME280;66210;53.282;9.864;2023-02-23T12:23:19;100767.91;;;7.27;89.84
77216;BME280;66210;53.282;9.864;2023-02-23T12:25:50;100772.00;;;7.25;90.24
77216;BME280;66210;53.282;9.864;2023-02-23T12:28:42;100768.22;;;7.19;89.87
77216;BME280;66210;53.282;9.864;2023-02-23T12:34:31;100774.56;;;7.12;89.79
77216;BME280;66210;53.282;9.864;2023-02-23T12:45:31;100770.84;;;6.92;89.89
77216;BME280;66210;53.282;9.864;2023-02-23T12:48:19;100776.41;;;6.86;89.91
77216;BME280;66210;53.282;9.864;2023-02-23T12:50:59;100777.94;;;6.84;89.81
77216;BME280;66210;53.282;9.864;2023-02-23T12:53:40;100777.75;;;6.81;90.08
77216;BME280;66210;53.282;9.864;2023-02-23T13:02:00;100779.41;;;6.81;90.23
77216;BME280;66210;53.282;9.864;2023-02-23T13:07:19;100771.81;;;6.81;90.58
77216;BME280;66210;53.282;9.864;2023-02-23T13:10:09;100768.34;;;6.79;89.95
77216;BME280;66210;53.282;9.864;2023-02-23T13:18:24;100764.66;;;6.74;90.28
77216;BME280;66210;53.282;9.864;2023-02-23T13:21:08;100768.16;;;6.76;90.34
77216;BME280;66210;53.282;9.864;2023-02-23T13:26:58;100760.06;;;6.81;90.39
77216;BME280;66210;53.282;9.864;2023-02-23T13:29:33;100758.63;;;6.85;90.33
77216;BME280;66210;53.282;9.864;2023-02-23T13:32:04;100753.56;;;6.85;90.33
77216;BME280;66210;53.282;9.864;2023-02-23T13:34:38;100760.44;;;6.87;90.26
77216;BME280;66210;53.282;9.864;2023-02-23T13:37:10;100754.72;;;6.90;90.22
77216;BME280;66210;53.282;9.864;2023-02-23T13:45:39;100752.47;;;6.95;90.23
77216;BME280;66210;53.282;9.864;2023-02-23T13:48:28;100753.44;;;6.97;89.70
77216;BME280;66210;53.282;9.864;2023-02-23T13:51:02;100754.31;;;6.97;89.99
77216;BME280;66210;53.282;9.864;2023-02-23T13:53:40;100755.25;;;6.99;90.14
77216;BME280;66210;53.282;9.864;2023-02-23T13:56:09;100754.41;;;6.99;90.33
77216;BME280;66210;53.282;9.864;2023-02-23T13:58:57;100754.59;;;7.02;90.06
77216;BME280;66210;53.282;9.864;2023-02-23T14:01:35;100759.03;;;7.06;90.20
77216;BME280;66210;53.282;9.864;2023-02-23T14:04:05;100756.59;;;7.07;90.04
77216;BME280;66210;53.282;9.864;2023-02-23T14:06:40;100753.38;;;7.10;90.11
77216;BME280;66210;53.282;9.864;2023-02-23T14:09:19;100761.16;;;7.13;90.24
77216;BME280;66210;53.282;9.864;2023-02-23T14:11:51;100760.47;;;7.16;89.98
77216;BME280;66210;53.282;9.864;2023-02-23T14:23:17;100757.94;;;7.16;89.87
77216;BME280;66210;53.282;9.864;2023-02-23T14:26:16;100759.31;;;7.11;89.40
77216;BME280;66210;53.282;9.864;2023-02-23T14:29:08;100757.41;;;7.06;89.80
77216;BME280;66210;53.282;9.864;2023-02-23T14:31:34;100758.97;;;7.04;89.84
77216;BME280;66210;53.282;9.864;2023-02-23T14:34:07;100761.50;;;7.04;89.98
77216;BME280;66210;53.282;9.864;2023-02-23T14:36:37;100757.19;;;7.03;90.02
77216;BME280;66210;53.282;9.864;2023-02-23T14:39:14;100757.03;;;7.00;90.03
77216;BME280;66210;53.282;9.864;2023-02-23T14:41:51;100755.38;;;7.01;89.99
77216;BME280;66210;53.282;9.864;2023-02-23T14:44:24;100757.88;;;7.01;90.00
77216;BME280;66210;53.282;9.864;2023-02-23T14:47:00;100758.75;;;7.01;90.07
77216;BME280;66210;53.282;9.864;2023-02-23T14:49:35;100752.94;;;7.02;89.86
77216;BME280;66210;53.282;9.864;2023-02-23T14:52:05;100759.72;;;7.03;90.09
77216;BME280;66210;53.282;9.864;2023-02-23T14:54:38;100764.00;;;7.04;90.12
77216;BME280;66210;53.282;9.864;2023-02-23T14:57:15;100756.34;;;7.03;89.94
77216;BME280;66210;53.282;9.864;2023-02-23T14:59:44;100755.63;;;7.05;90.11
77216;BME280;66210;53.282;9.864;2023-02-23T15:02:17;100758.97;;;7.04;90.21
77216;BME280;66210;53.282;9.864;2023-02-23T15:04:44;100750.47;;;7.04;90.10